Roanoke, VA (24037)

3:47 PM EDT on March 27, 2015 (GMT -0400)
Fallon Park ES | | Change Station
CLOSE
Current Station
Personal Weather Station
Location: Roanoke, VA
Elevation: 932 ft
Nearby Weather Stations

Elev 932 ft 37.28 °N, 79.91 °W | Updated 2 minutes ago

Overcast
Overcast
47.0 °F
Feels Like 45 °F
N
4.0
Wind Variable Wind from East
Gusts 16.0 mph

Today
High -- | Low -- °F
--% Chance of Precip.
Yesterday
High -- | Low -- °F
Precip. -- in
7:13 AM 7:37 PM
First Quarter, 55% visible
Pressure 29.78 in
Visibility 10.0 miles
Clouds Scattered Clouds 3900 ft
Mostly Cloudy 9000 ft
Windchill 45 °F
Dew Point 31 °F
Humidity 54%
Rainfall 0.43 in
Snow Depth Not available.
UV 4 out of 12
Pollen 6.40 out of 12
Air Quality Not available.
Flu Activity Not available.
METAR KROA 271854Z 35009KT 10SM SCT039 BKN090 08/M01 A2978 RMK AO2 SLP084 T00781011

More Conditions Fewer Conditions

Pressure 29.78 in
Visibility 10.0 miles
Clouds Scattered Clouds 3900 ft
Mostly Cloudy 9000 ft
Windchill 45 °F
Dew Point 31 °F
Humidity 54%
Rainfall 0.43 in
Snow Depth Not available.
UV 4 out of 12
Pollen 6.40 out of 12
Air Quality Not available.
Flu Activity Not available.
METAR KROA 271854Z 35009KT 10SM SCT039 BKN090 08/M01 A2978 RMK AO2 SLP084 T00781011

More Conditions Fewer Conditions

10-Day Weather Forecast

Almanac

Astronomy

Mar. 27, 2015 Rise Set
Actual Time
Civil Twilight
Nautical Twilight
Astronomical Twilight
Moon
Length of Visible Light
Length of Day
Tomorrow will be .
, % of the Moon is Illuminated

Today's Extremes

State Highs State Lows

Community

WunderPhotos

Upload Photos

1,808,799 photos uploaded!

WunderBlogs® & News

Nearby

Air Quality

  Air Quality AQ Index Pollutant
Not available.

Snow Depth

Station Depth Elevation

Earthquake Activity

City Distance Mag. Time & Date
Minimum magnitude displayed is 2.5.

Coastal Water Temperatures

Place Temperature

Stations

Nearby Weather Stations

Station Location Temp. Windchill Dew Point Humidity Wind Precip. Elev Updated Type